createdAt,value
2023-02-24T00:00:40.910Z,148.52
2023-02-24T00:03:11.692Z,142.75
2023-02-24T00:05:44.476Z,154.70
2023-02-24T00:08:14.095Z,145.10
2023-02-24T00:10:45.070Z,137.35
2023-02-24T00:13:18.628Z,129.93
2023-02-24T00:15:56.927Z,148.82
2023-02-24T00:18:26.717Z,135.40
2023-02-24T00:21:10.143Z,169.52
2023-02-24T00:23:54.830Z,136.18
2023-02-24T00:26:52.315Z,128.98
2023-02-24T00:29:38.897Z,156.90
2023-02-24T00:32:27.367Z,139.15
2023-02-24T00:34:56.816Z,132.80
2023-02-24T00:37:24.830Z,125.43
2023-02-24T00:39:57.489Z,144.18
2023-02-24T00:42:27.676Z,93.40
2023-02-24T00:44:56.442Z,80.75
2023-02-24T00:47:29.350Z,64.28
2023-02-24T00:50:00.220Z,62.55
2023-02-24T00:52:29.761Z,51.75
2023-02-24T00:54:59.191Z,65.72
2023-02-24T00:57:29.138Z,50.40
2023-02-24T00:59:58.846Z,41.75
2023-02-24T01:02:28.789Z,44.75
2023-02-24T01:05:01.492Z,51.78
2023-02-24T01:07:29.557Z,42.55
2023-02-24T01:09:57.891Z,25.00
2023-02-24T01:12:52.458Z,43.53
2023-02-24T01:15:26.033Z,26.52
2023-02-24T01:17:54.244Z,28.48
2023-02-24T01:20:23.861Z,40.58
2023-02-24T01:22:54.611Z,35.08
2023-02-24T01:25:23.609Z,30.38
2023-02-24T01:27:54.054Z,48.00
2023-02-24T01:30:25.448Z,33.95
2023-02-24T01:32:55.945Z,31.63
2023-02-24T01:35:25.539Z,17.45
2023-02-24T01:37:54.177Z,27.35
2023-02-24T01:40:22.683Z,22.30
2023-02-24T01:42:51.698Z,23.95
2023-02-24T01:45:28.789Z,26.33
2023-02-24T01:48:00.131Z,20.35
2023-02-24T01:50:29.227Z,25.13
2023-02-24T01:53:00.385Z,20.75
2023-02-24T01:58:02.528Z,25.33
2023-02-24T02:00:37.949Z,18.52
2023-02-24T02:03:11.328Z,18.98
2023-02-24T02:05:43.433Z,21.67
2023-02-24T02:08:14.505Z,22.90
2023-02-24T02:10:44.692Z,28.88
2023-02-24T02:13:16.434Z,21.88
2023-02-24T02:15:57.042Z,22.73
2023-02-24T02:18:33.349Z,25.67
2023-02-24T02:21:28.057Z,28.10
2023-02-24T02:24:01.572Z,18.48
2023-02-24T02:26:47.661Z,31.88
2023-02-24T02:29:31.897Z,18.10
2023-02-24T02:32:31.580Z,21.67
2023-02-24T02:35:03.841Z,24.80
2023-02-24T02:37:39.101Z,13.25
2023-02-24T02:40:20.735Z,26.27
2023-02-24T02:42:55.488Z,20.75
2023-02-24T02:45:27.839Z,24.83
2023-02-24T02:48:01.590Z,18.65
2023-02-24T02:50:41.208Z,17.17
2023-02-24T02:53:13.862Z,11.30
2023-02-24T02:55:45.847Z,25.30
2023-02-24T02:58:16.910Z,16.42
2023-02-24T03:00:54.549Z,37.08
2023-02-24T03:03:26.999Z,19.95
2023-02-24T03:05:58.638Z,10.15
2023-02-24T03:08:30.611Z,13.50
2023-02-24T03:11:00.469Z,9.38
2023-02-24T03:13:33.154Z,15.43
2023-02-24T03:16:03.579Z,29.60
2023-02-24T03:18:34.168Z,16.48
2023-02-24T03:21:07.971Z,11.48
2023-02-24T03:23:40.059Z,20.83
2023-02-24T03:26:17.214Z,20.50
2023-02-24T03:28:54.246Z,18.20
2023-02-24T03:31:27.656Z,27.00
2023-02-24T03:34:04.546Z,13.98
2023-02-24T03:36:34.913Z,19.13
2023-02-24T03:39:06.027Z,23.13
2023-02-24T03:41:38.636Z,13.13
2023-02-24T03:44:14.369Z,19.58
2023-02-24T03:46:43.246Z,16.92
2023-02-24T03:49:16.410Z,14.68
2023-02-24T03:51:57.018Z,18.92
2023-02-24T03:54:37.634Z,17.75
2023-02-24T03:57:16.216Z,18.77
2023-02-24T03:59:53.376Z,19.20
2023-02-24T04:02:25.964Z,9.80
2023-02-24T04:04:58.430Z,16.67
2023-02-24T04:07:37.218Z,14.27
2023-02-24T04:10:09.919Z,21.50
2023-02-24T04:12:47.138Z,23.55
2023-02-24T04:15:20.637Z,21.23
2023-02-24T04:17:50.850Z,8.43
2023-02-24T04:20:21.058Z,18.85
2023-02-24T04:22:54.702Z,18.90
2023-02-24T04:25:25.246Z,12.73
2023-02-24T04:27:56.082Z,20.27
2023-02-24T04:30:27.613Z,8.30
2023-02-24T04:32:59.465Z,16.42
2023-02-24T04:35:31.129Z,15.30
2023-02-24T04:38:01.101Z,9.13
2023-02-24T04:40:29.617Z,19.20
2023-02-24T04:42:58.156Z,12.90
2023-02-24T04:45:28.765Z,16.25
2023-02-24T04:48:01.332Z,8.57
2023-02-24T04:50:33.378Z,9.85
2023-02-24T04:53:07.042Z,7.40
2023-02-24T04:55:40.080Z,8.07
2023-02-24T04:58:08.748Z,16.42
2023-02-24T05:00:37.249Z,11.10
2023-02-24T05:03:06.567Z,21.40
2023-02-24T05:05:37.789Z,23.33
2023-02-24T05:08:10.404Z,27.10
2023-02-24T05:10:39.931Z,8.93
2023-02-24T05:13:10.244Z,13.13
2023-02-24T05:15:42.172Z,9.70
2023-02-24T05:18:14.088Z,11.50
2023-02-24T05:21:02.147Z,12.20
2023-02-24T05:23:35.362Z,12.15
2023-02-24T05:26:08.564Z,7.22
2023-02-24T05:28:38.476Z,10.75
2023-02-24T05:31:08.512Z,14.15
2023-02-24T05:33:38.536Z,9.10
2023-02-24T05:36:12.653Z,14.50
2023-02-24T05:38:44.115Z,9.23
2023-02-24T05:41:17.160Z,14.50
2023-02-24T05:43:48.285Z,13.88
2023-02-24T05:46:19.464Z,17.98
2023-02-24T05:48:51.478Z,12.75
2023-02-24T05:51:20.089Z,18.67
2023-02-24T05:53:55.671Z,9.15
2023-02-24T05:56:24.873Z,10.10
2023-02-24T05:59:02.217Z,11.13
2023-02-24T06:01:32.950Z,18.23
2023-02-24T06:04:05.830Z,17.35
2023-02-24T06:06:36.504Z,14.50
2023-02-24T06:09:10.896Z,10.90
2023-02-24T06:11:40.623Z,10.82
2023-02-24T06:14:09.944Z,22.35
2023-02-24T06:16:40.394Z,10.93
2023-02-24T06:19:09.705Z,16.13
2023-02-24T06:21:41.366Z,10.73
2023-02-24T06:24:14.824Z,10.63
2023-02-24T06:26:44.305Z,12.15
2023-02-24T06:29:15.272Z,7.35
2023-02-24T06:31:44.445Z,7.25
2023-02-24T06:34:14.175Z,10.13
2023-02-24T06:36:44.031Z,17.67
2023-02-24T06:39:15.031Z,10.55
2023-02-24T06:41:45.521Z,10.65
2023-02-24T06:44:15.155Z,8.93
2023-02-24T06:46:43.442Z,13.10
2023-02-24T06:49:12.732Z,12.55
2023-02-24T06:51:43.474Z,11.68
2023-02-24T06:54:13.320Z,9.23
2023-02-24T06:56:41.828Z,7.80
2023-02-24T06:59:11.991Z,10.23
2023-02-24T07:01:46.220Z,9.45
2023-02-24T07:04:27.798Z,5.88
2023-02-24T07:07:02.830Z,14.93
2023-02-24T07:09:34.567Z,7.35
2023-02-24T07:12:07.991Z,14.57
2023-02-24T07:14:37.020Z,8.38
2023-02-24T07:17:08.033Z,5.97
2023-02-24T07:19:36.722Z,5.75
2023-02-24T07:22:04.970Z,12.63
2023-02-24T07:24:37.416Z,12.73
2023-02-24T07:27:08.361Z,8.23
2023-02-24T07:29:37.706Z,9.70
2023-02-24T07:32:08.985Z,11.35
2023-02-24T07:34:40.652Z,12.77
2023-02-24T07:37:12.716Z,8.50
2023-02-24T07:39:43.640Z,9.27
2023-02-24T07:42:16.417Z,9.65
2023-02-24T07:44:49.208Z,11.30
2023-02-24T07:47:18.586Z,11.95
2023-02-24T07:49:47.375Z,7.35
2023-02-24T07:52:16.213Z,9.77
2023-02-24T07:54:46.365Z,11.32
2023-02-24T07:57:14.821Z,14.32
2023-02-24T07:59:47.023Z,13.15
2023-02-24T08:02:20.098Z,11.23
2023-02-24T08:05:12.442Z,11.38
2023-02-24T08:07:42.828Z,11.10
2023-02-24T08:10:24.913Z,4.90
2023-02-24T08:12:57.203Z,6.15
2023-02-24T08:18:03.238Z,14.70
2023-02-24T08:20:36.407Z,9.32
2023-02-24T08:23:08.846Z,6.63
2023-02-24T08:25:38.518Z,9.55
2023-02-24T08:28:12.073Z,10.75
2023-02-24T08:30:46.427Z,8.05
2023-02-24T08:33:23.492Z,8.73
2023-02-24T08:36:01.960Z,6.93
2023-02-24T08:38:52.417Z,8.30
2023-02-24T08:41:38.571Z,11.25
2023-02-24T08:44:10.802Z,9.80
2023-02-24T08:49:11.008Z,6.22
2023-02-24T08:51:44.005Z,7.38
2023-02-24T08:54:17.402Z,8.57
2023-02-24T08:56:55.819Z,6.45
2023-02-24T08:59:39.370Z,7.65
2023-02-24T09:02:24.464Z,5.15
2023-02-24T09:04:57.873Z,11.18
2023-02-24T09:07:28.388Z,7.78
2023-02-24T09:09:59.054Z,13.52
2023-02-24T09:12:30.988Z,6.40
2023-02-24T09:15:05.312Z,9.65
2023-02-24T09:17:50.134Z,8.75
2023-02-24T09:20:49.253Z,7.70
2023-02-24T09:23:21.466Z,9.07
2023-02-24T09:25:55.360Z,12.63
2023-02-24T09:28:27.797Z,7.65
2023-02-24T09:30:58.570Z,7.00
2023-02-24T09:33:28.464Z,9.50
2023-02-24T09:36:09.934Z,9.02
2023-02-24T09:39:08.423Z,7.07
2023-02-24T09:42:04.006Z,10.98
2023-02-24T09:44:36.643Z,12.80
2023-02-24T09:47:14.042Z,8.82
2023-02-24T09:49:56.341Z,7.07
2023-02-24T09:55:25.080Z,5.18
2023-02-24T09:58:20.448Z,13.40
2023-02-24T10:00:55.857Z,7.20
2023-02-24T10:03:42.700Z,5.07
2023-02-24T10:06:35.388Z,8.15
2023-02-24T10:11:53.642Z,4.07
2023-02-24T10:14:29.403Z,9.85
2023-02-24T10:17:22.769Z,10.35
2023-02-24T10:19:56.626Z,4.30
2023-02-24T10:22:34.972Z,6.32
2023-02-24T10:25:21.234Z,6.50
2023-02-24T10:28:01.360Z,5.90
2023-02-24T10:30:41.053Z,5.97
2023-02-24T10:33:25.483Z,6.22
2023-02-24T10:36:10.253Z,8.07
2023-02-24T10:38:45.634Z,7.15
2023-02-24T10:41:18.596Z,6.53
2023-02-24T10:43:58.101Z,10.18
2023-02-24T10:46:41.650Z,5.72
2023-02-24T10:49:16.636Z,5.82
2023-02-24T10:51:54.464Z,6.07
2023-02-24T10:54:45.767Z,7.88
2023-02-24T10:57:23.177Z,9.40
2023-02-24T11:00:20.947Z,9.13
2023-02-24T11:03:10.540Z,4.75
2023-02-24T11:06:08.446Z,6.22
2023-02-24T11:08:44.846Z,10.63
2023-02-24T11:11:25.606Z,8.05
2023-02-24T11:14:13.009Z,6.65
2023-02-24T11:17:05.358Z,5.55
2023-02-24T11:19:38.122Z,14.75
2023-02-24T11:22:09.102Z,8.70
2023-02-24T11:24:40.822Z,10.00
2023-02-24T11:27:11.579Z,7.50
2023-02-24T11:29:50.441Z,7.57
2023-02-24T11:32:32.598Z,33.45
2023-02-24T11:35:05.772Z,6.15
2023-02-24T11:37:40.666Z,13.07
2023-02-24T11:40:18.936Z,13.98
2023-02-24T11:42:51.391Z,8.55
2023-02-24T11:45:29.705Z,9.68
2023-02-24T11:48:00.999Z,12.23
2023-02-24T11:50:36.413Z,8.25
2023-02-24T11:53:11.149Z,6.55
2023-02-24T11:55:57.004Z,5.43
2023-02-24T11:58:33.316Z,10.20
2023-02-24T12:01:08.077Z,3.95
2023-02-24T12:03:39.160Z,9.98
2023-02-24T12:06:17.040Z,9.07
2023-02-24T12:08:52.830Z,8.75
2023-02-24T12:11:28.980Z,7.38
2023-02-24T12:14:04.939Z,11.05
2023-02-24T12:16:36.799Z,14.18
2023-02-24T12:19:12.036Z,13.75
2023-02-24T12:21:43.814Z,6.05
2023-02-24T12:24:16.893Z,15.07
2023-02-24T12:26:55.778Z,15.48
2023-02-24T12:29:50.356Z,8.65
2023-02-24T12:32:34.842Z,12.95
2023-02-24T12:35:08.546Z,9.43
2023-02-24T12:37:48.492Z,8.73
2023-02-24T12:40:28.979Z,14.32
2023-02-24T12:43:05.024Z,8.48
2023-02-24T12:45:44.519Z,6.28
2023-02-24T12:48:35.941Z,11.40
2023-02-24T12:51:08.112Z,10.77
2023-02-24T12:56:14.626Z,12.18
2023-02-24T12:58:46.593Z,8.88
2023-02-24T13:01:21.797Z,14.52
2023-02-24T13:03:58.987Z,11.43
2023-02-24T13:06:39.242Z,9.52
2023-02-24T13:09:15.638Z,10.57
2023-02-24T13:11:50.533Z,13.55
2023-02-24T13:14:23.855Z,5.90
2023-02-24T13:16:52.125Z,6.07
2023-02-24T13:19:23.842Z,8.50
2023-02-24T13:22:03.025Z,8.43
2023-02-24T13:24:31.097Z,7.35
2023-02-24T13:27:08.312Z,4.30
2023-02-24T13:29:47.604Z,4.72
2023-02-24T13:32:28.903Z,8.45
2023-02-24T13:34:58.427Z,6.50
2023-02-24T13:37:34.754Z,12.32
2023-02-24T13:40:19.493Z,6.20
2023-02-24T13:43:02.099Z,7.03
2023-02-24T13:45:32.737Z,12.00
2023-02-24T13:48:23.742Z,6.88
2023-02-24T13:51:05.889Z,6.00
2023-02-24T13:53:45.218Z,7.72
2023-02-24T13:56:25.642Z,13.15
2023-02-24T13:59:24.163Z,7.95
2023-02-24T14:02:00.543Z,6.20
2023-02-24T14:04:31.768Z,11.25
2023-02-24T14:07:04.313Z,9.45
2023-02-24T14:09:34.823Z,9.73
2023-02-24T14:12:07.247Z,8.70
2023-02-24T14:14:36.158Z,6.68
2023-02-24T14:17:05.897Z,9.63
2023-02-24T14:19:34.495Z,6.43
2023-02-24T14:22:04.606Z,8.82
2023-02-24T14:24:35.320Z,6.32
2023-02-24T14:27:03.412Z,7.40
2023-02-24T14:29:34.076Z,5.55
2023-02-24T14:32:06.117Z,8.75
2023-02-24T14:34:34.836Z,6.38
2023-02-24T14:37:04.367Z,6.65
2023-02-24T14:39:34.253Z,6.50
2023-02-24T14:42:15.914Z,5.13
2023-02-24T14:44:46.691Z,3.40
2023-02-24T14:47:18.878Z,4.65
2023-02-24T14:52:29.527Z,6.28
2023-02-24T14:55:00.964Z,5.88
2023-02-24T14:57:32.137Z,8.43
2023-02-24T15:00:11.043Z,6.45
2023-02-24T15:02:44.080Z,5.35
2023-02-24T15:05:13.418Z,5.45
2023-02-24T15:07:45.795Z,3.60
2023-02-24T15:10:23.466Z,2.70
2023-02-24T15:12:55.639Z,8.95
2023-02-24T15:17:57.198Z,5.68
2023-02-24T15:20:27.951Z,4.07
2023-02-24T15:22:57.230Z,3.88
2023-02-24T15:25:37.035Z,3.58
2023-02-24T15:28:28.221Z,7.10
2023-02-24T15:31:01.302Z,5.03
2023-02-24T15:33:35.910Z,5.70
2023-02-24T15:36:08.767Z,6.95
2023-02-24T15:38:39.321Z,3.60
2023-02-24T15:41:09.484Z,8.25
2023-02-24T15:43:39.423Z,6.47
2023-02-24T15:46:30.399Z,6.07
2023-02-24T15:49:03.350Z,6.25
2023-02-24T15:51:37.042Z,7.43
2023-02-24T15:54:06.773Z,7.55
2023-02-24T15:56:40.585Z,7.72
2023-02-24T15:59:09.640Z,9.40
2023-02-24T16:01:38.182Z,8.77
2023-02-24T16:04:09.813Z,6.88
2023-02-24T16:06:41.727Z,9.38
2023-02-24T16:09:14.080Z,8.77
2023-02-24T16:11:45.001Z,15.85
2023-02-24T16:14:17.908Z,11.20
2023-02-24T16:16:50.061Z,11.50
2023-02-24T16:19:21.323Z,10.65
2023-02-24T16:21:50.226Z,9.43
2023-02-24T16:24:20.570Z,8.63
2023-02-24T16:26:50.292Z,11.57
2023-02-24T16:29:20.034Z,14.18
2023-02-24T16:31:54.379Z,15.40
2023-02-24T16:34:24.167Z,13.65
2023-02-24T16:36:52.769Z,18.23
2023-02-24T16:39:21.911Z,14.25
2023-02-24T16:41:51.455Z,13.63
2023-02-24T16:44:19.822Z,15.50
2023-02-24T16:46:48.375Z,15.73
2023-02-24T16:49:20.394Z,18.58
2023-02-24T16:51:53.127Z,24.15
2023-02-24T16:54:29.993Z,18.73
2023-02-24T16:57:01.473Z,22.60
2023-02-24T16:59:30.759Z,19.40
2023-02-24T17:02:02.302Z,18.70
2023-02-24T17:04:32.279Z,21.33
2023-02-24T17:07:03.524Z,26.25
2023-02-24T17:09:39.392Z,21.15
2023-02-24T17:12:09.844Z,22.30
2023-02-24T17:14:38.896Z,28.85
2023-02-24T17:17:08.318Z,23.52
2023-02-24T17:19:36.986Z,24.83
2023-02-24T17:22:12.037Z,26.08
2023-02-24T17:24:40.453Z,28.48
2023-02-24T17:27:09.814Z,29.48
2023-02-24T17:29:38.931Z,26.02
2023-02-24T17:32:08.708Z,28.95
2023-02-24T17:34:37.308Z,27.13
2023-02-24T17:37:07.528Z,29.20
2023-02-24T17:39:36.123Z,35.83
2023-02-24T17:42:04.828Z,32.53
2023-02-24T17:44:33.875Z,34.33
2023-02-24T17:47:04.670Z,32.00
2023-02-24T17:49:35.011Z,32.95
2023-02-24T17:52:06.259Z,35.67
2023-02-24T17:54:36.568Z,32.78
2023-02-24T17:57:08.318Z,34.17
2023-02-24T17:59:39.173Z,34.75
2023-02-24T18:02:08.796Z,39.03
2023-02-24T18:04:37.161Z,36.80
2023-02-24T18:07:05.549Z,40.33
2023-02-24T18:09:35.558Z,44.92
2023-02-24T18:12:04.891Z,36.83
2023-02-24T18:14:34.913Z,34.80
2023-02-24T18:17:03.472Z,38.55
2023-02-24T18:19:32.481Z,45.47
2023-02-24T18:22:01.096Z,36.83
2023-02-24T18:24:29.297Z,36.75
2023-02-24T18:26:59.222Z,39.60
2023-02-24T18:29:28.118Z,40.60
2023-02-24T18:31:56.722Z,36.15
2023-02-24T18:34:25.811Z,34.78
2023-02-24T18:36:54.180Z,39.13
2023-02-24T18:39:24.207Z,38.67
2023-02-24T18:41:53.705Z,32.25
2023-02-24T18:44:24.958Z,39.30
2023-02-24T18:46:53.617Z,36.53
2023-02-24T18:49:25.115Z,42.78
2023-02-24T18:51:54.156Z,41.17
2023-02-24T18:54:27.616Z,43.72
2023-02-24T18:56:56.717Z,42.15
2023-02-24T18:59:27.260Z,36.53
2023-02-24T19:01:56.917Z,37.00
2023-02-24T19:04:27.758Z,40.33
2023-02-24T19:06:56.345Z,41.50
2023-02-24T19:09:24.866Z,37.97
2023-02-24T19:11:54.513Z,40.58
2023-02-24T19:14:24.094Z,34.10
2023-02-24T19:16:53.676Z,34.88
2023-02-24T19:19:22.860Z,35.97
2023-02-24T19:21:51.561Z,33.88
2023-02-24T19:24:20.433Z,36.08
2023-02-24T19:26:51.251Z,39.45
2023-02-24T19:29:20.529Z,36.55
2023-02-24T19:31:54.048Z,37.33
2023-02-24T19:34:23.871Z,35.25
2023-02-24T19:36:52.160Z,40.45
2023-02-24T19:39:20.415Z,36.40
2023-02-24T19:41:49.771Z,36.22
2023-02-24T19:44:18.386Z,41.80
2023-02-24T19:46:49.659Z,33.92
2023-02-24T19:49:18.971Z,37.28
2023-02-24T19:51:48.613Z,42.55
2023-02-24T19:54:17.228Z,39.85
2023-02-24T19:56:46.423Z,43.83
2023-02-24T19:59:15.122Z,39.38
2023-02-24T20:01:44.115Z,40.78
2023-02-24T20:04:13.357Z,40.15
2023-02-24T20:06:43.876Z,46.45
2023-02-24T20:09:17.515Z,42.53
2023-02-24T20:11:46.180Z,49.03
2023-02-24T20:14:17.292Z,47.72
2023-02-24T20:19:17.302Z,43.75
2023-02-24T20:21:46.077Z,43.03
2023-02-24T20:24:17.185Z,44.28
2023-02-24T20:26:49.862Z,49.47
2023-02-24T20:29:19.954Z,49.47
2023-02-24T20:31:50.599Z,49.95
2023-02-24T20:34:19.119Z,51.83
2023-02-24T20:36:48.719Z,51.05
2023-02-24T20:39:18.463Z,49.22
2023-02-24T20:41:47.824Z,47.15
2023-02-24T20:44:16.345Z,48.58
2023-02-24T20:46:45.758Z,45.97
2023-02-24T20:49:15.018Z,53.92
2023-02-24T20:51:44.225Z,49.90
2023-02-24T20:54:14.844Z,51.80
2023-02-24T20:56:47.770Z,50.78
2023-02-24T20:59:17.733Z,53.35
2023-02-24T21:02:00.521Z,50.03
2023-02-24T21:07:25.252Z,44.80
2023-02-24T21:09:54.982Z,48.40
2023-02-24T21:12:25.009Z,53.42
2023-02-24T21:14:53.366Z,48.25
2023-02-24T21:17:21.666Z,51.63
2023-02-24T21:19:51.086Z,47.80
2023-02-24T21:22:19.672Z,50.63
2023-02-24T21:24:50.603Z,56.33
2023-02-24T21:51:10.457Z,46.40
2023-02-24T21:54:30.436Z,37.05
2023-02-24T22:06:42.606Z,42.72
2023-02-24T22:09:12.169Z,38.13
2023-02-24T22:11:44.034Z,34.03
2023-02-24T22:20:26.721Z,38.53
2023-02-24T22:22:56.618Z,34.42
2023-02-24T22:25:29.842Z,34.65
2023-02-24T22:27:59.409Z,28.33
2023-02-24T22:33:15.715Z,24.40
2023-02-24T22:35:45.343Z,23.90
2023-02-24T22:38:15.274Z,33.35
2023-02-24T22:40:53.956Z,27.17
2023-02-24T22:43:23.668Z,18.52
2023-02-24T22:46:01.794Z,21.73
2023-02-24T22:48:31.526Z,18.23
2023-02-24T22:51:01.583Z,19.25
2023-02-24T22:53:34.681Z,22.15
2023-02-24T22:56:05.849Z,18.00
2023-02-24T22:58:34.717Z,21.27
2023-02-24T23:01:03.194Z,16.52
2023-02-24T23:03:34.537Z,20.35
2023-02-24T23:06:06.601Z,14.18
2023-02-24T23:08:39.119Z,28.52
2023-02-24T23:11:09.522Z,17.88
2023-02-24T23:13:38.533Z,13.93
2023-02-24T23:16:10.337Z,15.00
2023-02-24T23:18:48.465Z,17.17
2023-02-24T23:21:21.451Z,13.43
2023-02-24T23:23:53.698Z,13.75
2023-02-24T23:28:53.998Z,12.27
2023-02-24T23:31:23.921Z,11.93
2023-02-24T23:33:56.758Z,18.83
2023-02-24T23:36:26.300Z,11.27
2023-02-24T23:39:05.213Z,26.00
2023-02-24T23:41:36.630Z,13.48
2023-02-24T23:44:06.160Z,17.33
2023-02-24T23:46:36.252Z,16.45
2023-02-24T23:49:22.972Z,21.45
2023-02-24T23:51:55.276Z,23.05
2023-02-24T23:57:53.315Z,19.38
